Mc Donough, Georgia
Current Conditions -  °F | °C
As of 12:52 AM on Sunday 21 Dec 2014 (Local Time) from KATL Reporting Station
Overcast Overcast  
Wind Chill: 45°   Ceiling: 1100
Heat Index: 48°   Visibility: 7mi
Dew Point: 44°   Wind: 7mph
Humidity: 86%   Direction: 80°E
Pressure: 30.19"   Gusts: NA
Location:  33.4528°N, 84.1842°W
Report Text: KATL 210552Z 08006KT 7SM OVC011 09/07 A3019 RMK AO2 SLP226 CIG 009V013 T00890067 10106 20089 58001
Loading
Personal Weather Stations






























Interactive Weather Map New forecast layout! Learn more

10-Day Weather Forecast

Advertisements
Track Severe Weather on mobile